createdAt,value
2023-01-21T00:04:34.659Z,18.38
2023-01-21T00:09:56.405Z,18.33
2023-01-21T00:15:18.136Z,18.28
2023-01-21T00:20:39.989Z,18.25
2023-01-21T00:26:03.857Z,18.19
2023-01-21T00:31:26.337Z,18.16
2023-01-21T00:36:48.082Z,18.14
2023-01-21T00:42:11.432Z,18.10
2023-01-21T00:47:33.182Z,18.07
2023-01-21T00:52:55.275Z,18.03
2023-01-21T00:58:17.027Z,17.99
2023-01-21T01:03:39.897Z,17.96
2023-01-21T01:09:01.704Z,17.92
2023-01-21T01:14:23.982Z,17.91
2023-01-21T01:19:45.804Z,17.88
2023-01-21T01:25:07.690Z,17.82
2023-01-21T01:30:29.822Z,17.76
2023-01-21T01:35:52.123Z,17.74
2023-01-21T01:41:17.616Z,17.70
2023-01-21T01:46:39.392Z,17.67
2023-01-21T01:52:05.119Z,17.68
2023-01-21T01:57:32.049Z,17.62
2023-01-21T02:03:13.246Z,17.61
2023-01-21T02:08:36.479Z,17.58
2023-01-21T02:14:00.142Z,17.55
2023-01-21T02:19:43.558Z,17.53
2023-01-21T02:25:41.648Z,17.50
2023-01-21T02:31:30.455Z,17.49
2023-01-21T02:37:05.348Z,17.46
2023-01-21T02:42:45.254Z,17.44
2023-01-21T02:48:26.311Z,17.44
2023-01-21T02:53:48.087Z,17.40
2023-01-21T02:59:10.687Z,17.36
2023-01-21T03:04:58.399Z,17.34
2023-01-21T03:10:32.068Z,17.32
2023-01-21T03:16:15.726Z,17.29
2023-01-21T03:21:38.469Z,17.24
2023-01-21T03:27:02.169Z,17.22
2023-01-21T03:32:25.967Z,17.20
2023-01-21T03:37:53.034Z,17.20
2023-01-21T03:43:14.853Z,17.16
2023-01-21T03:48:57.505Z,17.16
2023-01-21T03:54:19.506Z,17.13
2023-01-21T03:59:41.340Z,17.10
2023-01-21T04:05:03.642Z,17.08
2023-01-21T04:10:25.336Z,17.07
2023-01-21T04:15:47.715Z,17.04
2023-01-21T04:21:09.515Z,17.02
2023-01-21T04:26:31.301Z,17.00
2023-01-21T04:31:53.041Z,16.99
2023-01-21T04:37:14.936Z,16.97
2023-01-21T04:42:36.653Z,16.94
2023-01-21T04:47:58.410Z,16.92
2023-01-21T04:53:20.141Z,16.90
2023-01-21T04:58:41.853Z,16.88
2023-01-21T05:04:03.762Z,16.87
2023-01-21T05:09:25.649Z,16.85
2023-01-21T05:14:47.369Z,16.84
2023-01-21T05:20:09.881Z,16.81
2023-01-21T05:25:31.615Z,16.79
2023-01-21T05:30:53.320Z,16.78
2023-01-21T05:36:15.121Z,16.75
2023-01-21T05:41:36.925Z,16.72
2023-01-21T05:46:58.641Z,16.72
2023-01-21T05:52:20.407Z,16.70
2023-01-21T05:57:42.145Z,16.68
2023-01-21T06:03:04.390Z,16.68
2023-01-21T06:08:26.140Z,16.66
2023-01-21T06:13:47.904Z,16.63
2023-01-21T06:19:09.645Z,16.60
2023-01-21T06:24:31.577Z,16.58
2023-01-21T06:29:53.282Z,16.57
2023-01-21T06:35:15.432Z,16.56
2023-01-21T06:40:37.224Z,16.58
2023-01-21T06:45:59.051Z,16.76
2023-01-21T06:51:20.889Z,17.32
2023-01-21T06:56:43.841Z,18.02
2023-01-21T07:02:05.861Z,18.62
2023-01-21T07:07:27.700Z,19.16
2023-01-21T07:12:49.427Z,19.55
2023-01-21T07:18:11.131Z,19.76
2023-01-21T07:23:32.829Z,19.81
2023-01-21T07:28:54.541Z,19.61
2023-01-21T07:34:16.590Z,19.43
2023-01-21T07:39:38.307Z,19.23
2023-01-21T07:45:02.913Z,19.06
2023-01-21T07:50:24.721Z,19.08
2023-01-21T07:55:46.498Z,19.26
2023-01-21T08:01:10.094Z,19.34
2023-01-21T08:06:31.816Z,19.51
2023-01-21T08:11:53.587Z,19.79
2023-01-21T08:17:15.308Z,19.86
2023-01-21T08:22:37.808Z,20.23
2023-01-21T08:28:02.157Z,20.37
2023-01-21T08:33:23.817Z,20.45
2023-01-21T08:38:48.453Z,20.56
2023-01-21T08:44:10.624Z,20.87
2023-01-21T08:49:32.319Z,20.98
2023-01-21T08:54:54.289Z,21.06
2023-01-21T09:00:16.390Z,21.09
2023-01-21T09:05:38.045Z,21.08
2023-01-21T09:11:01.089Z,21.01
2023-01-21T09:16:23.418Z,20.87
2023-01-21T09:21:45.141Z,20.77
2023-01-21T09:27:07.782Z,20.63
2023-01-21T09:32:29.500Z,20.50
2023-01-21T09:37:51.203Z,20.34
2023-01-21T09:43:23.409Z,20.20
2023-01-21T09:48:48.741Z,20.08
2023-01-21T09:54:18.066Z,19.92
2023-01-21T09:59:59.799Z,19.83
2023-01-21T10:05:24.183Z,19.64
2023-01-21T10:10:52.700Z,19.49
2023-01-21T10:16:42.356Z,19.33
2023-01-21T10:22:12.353Z,19.20
2023-01-21T10:27:38.114Z,19.07
2023-01-21T10:33:00.711Z,19.06
2023-01-21T10:38:34.217Z,19.19
2023-01-21T10:44:09.504Z,19.35
2023-01-21T10:49:52.496Z,19.49
2023-01-21T10:56:00.226Z,19.63
2023-01-21T11:01:24.290Z,19.66
2023-01-21T11:06:59.320Z,19.81
2023-01-21T11:12:22.363Z,19.96
2023-01-21T11:17:50.160Z,20.06
2023-01-21T11:23:27.366Z,20.08
2023-01-21T11:28:49.189Z,19.99
2023-01-21T11:34:17.616Z,19.84
2023-01-21T11:39:48.263Z,19.66
2023-01-21T11:45:38.864Z,19.47
2023-01-21T11:51:07.431Z,19.31
2023-01-21T11:56:29.294Z,19.15
2023-01-21T12:02:04.857Z,19.04
2023-01-21T12:07:33.268Z,18.94
2023-01-21T12:13:10.226Z,18.86
2023-01-21T12:18:34.912Z,18.77
2023-01-21T12:24:14.875Z,18.71
2023-01-21T12:30:06.712Z,18.68
2023-01-21T12:35:39.694Z,18.63
2023-01-21T12:41:17.229Z,18.65
2023-01-21T12:46:44.889Z,18.76
2023-01-21T12:52:19.082Z,18.96
2023-01-21T12:57:58.702Z,19.14
2023-01-21T13:03:24.497Z,19.29
2023-01-21T13:09:27.889Z,19.41
2023-01-21T13:15:18.857Z,19.54
2023-01-21T13:20:53.049Z,19.75
2023-01-21T13:26:52.901Z,19.87
2023-01-21T13:32:23.746Z,20.01
2023-01-21T13:37:47.944Z,20.08
2023-01-21T13:43:12.542Z,20.09
2023-01-21T13:48:43.160Z,20.05
2023-01-21T13:54:27.459Z,19.95
2023-01-21T13:59:55.330Z,19.81
2023-01-21T14:05:19.814Z,19.73
2023-01-21T14:11:06.228Z,19.66
2023-01-21T14:16:34.314Z,19.79
2023-01-21T14:22:10.938Z,20.04
2023-01-21T14:27:38.363Z,20.39
2023-01-21T14:33:46.484Z,20.71
2023-01-21T14:39:19.985Z,21.03
2023-01-21T14:44:50.613Z,21.24
2023-01-21T14:50:44.804Z,21.41
2023-01-21T14:56:19.295Z,21.55
2023-01-21T15:01:48.157Z,21.66
2023-01-21T15:07:18.031Z,21.80
2023-01-21T15:12:46.217Z,21.89
2023-01-21T15:18:10.689Z,22.02
2023-01-21T15:23:32.353Z,22.09
2023-01-21T15:28:56.424Z,22.12
2023-01-21T15:34:21.846Z,22.14
2023-01-21T15:39:44.118Z,22.09
2023-01-21T15:45:23.875Z,22.13
2023-01-21T15:50:57.408Z,22.13
2023-01-21T15:56:19.203Z,22.16
2023-01-21T16:01:41.518Z,22.16
2023-01-21T16:07:09.084Z,22.13
2023-01-21T16:12:57.401Z,22.14
2023-01-21T16:18:43.403Z,22.23
2023-01-21T16:24:10.332Z,22.21
2023-01-21T16:29:38.689Z,22.13
2023-01-21T16:35:01.182Z,22.02
2023-01-21T16:40:29.998Z,22.05
2023-01-21T16:46:01.330Z,22.11
2023-01-21T16:51:28.852Z,22.19
2023-01-21T16:57:20.335Z,22.31
2023-01-21T17:02:42.136Z,22.37
2023-01-21T17:08:11.370Z,22.46
2023-01-21T17:13:33.572Z,22.51
2023-01-21T17:18:57.268Z,22.52
2023-01-21T17:24:24.129Z,22.40
2023-01-21T17:29:46.069Z,22.28
2023-01-21T17:35:15.363Z,22.10
2023-01-21T17:40:58.873Z,21.88
2023-01-21T17:46:22.802Z,21.63
2023-01-21T17:51:45.373Z,21.42
2023-01-21T17:57:35.986Z,21.23
2023-01-21T18:02:58.427Z,21.02
2023-01-21T18:08:20.358Z,20.87
2023-01-21T18:13:42.168Z,20.68
2023-01-21T18:19:03.941Z,20.52
2023-01-21T18:24:26.299Z,20.38
2023-01-21T18:29:48.272Z,20.23
2023-01-21T18:35:11.240Z,20.11
2023-01-21T18:40:33.091Z,20.05
2023-01-21T18:45:54.981Z,20.08
2023-01-21T18:51:16.965Z,20.12
2023-01-21T18:56:38.849Z,20.26
2023-01-21T19:02:00.770Z,20.60
2023-01-21T19:07:23.938Z,21.00
2023-01-21T19:12:47.072Z,21.35
2023-01-21T19:18:13.844Z,21.69
2023-01-21T19:23:36.023Z,21.96
2023-01-21T19:28:58.124Z,22.19
2023-01-21T19:34:22.011Z,22.31
2023-01-21T19:39:44.174Z,22.31
2023-01-21T19:45:08.861Z,22.21
2023-01-21T19:50:31.111Z,22.01
2023-01-21T19:55:52.975Z,21.79
2023-01-21T20:01:14.816Z,21.61
2023-01-21T20:06:40.477Z,21.43
2023-01-21T20:12:04.347Z,21.26
2023-01-21T20:17:27.893Z,21.08
2023-01-21T20:22:50.024Z,20.94
2023-01-21T20:28:35.960Z,20.89
2023-01-21T20:33:57.888Z,20.85
2023-01-21T20:39:20.443Z,20.86
2023-01-21T20:44:42.149Z,20.85
2023-01-21T20:50:06.088Z,20.87
2023-01-21T20:55:29.450Z,20.85
2023-01-21T21:00:51.197Z,20.84
2023-01-21T21:06:25.374Z,20.86
2023-01-21T21:11:47.109Z,20.85
2023-01-21T21:17:14.588Z,20.84
2023-01-21T21:22:36.245Z,20.80
2023-01-21T21:27:58.515Z,20.75
2023-01-21T21:33:22.206Z,20.71
2023-01-21T21:38:46.389Z,20.51
2023-01-21T21:44:09.355Z,20.29
2023-01-21T21:49:31.238Z,20.18
2023-01-21T21:54:54.580Z,20.09
2023-01-21T22:00:16.920Z,20.01
2023-01-21T22:05:38.657Z,19.93
2023-01-21T22:11:02.227Z,19.82
2023-01-21T22:16:28.879Z,19.75
2023-01-21T22:21:50.621Z,19.63
2023-01-21T22:27:13.351Z,19.55
2023-01-21T22:32:35.046Z,19.47
2023-01-21T22:37:56.731Z,19.36
2023-01-21T22:43:21.079Z,19.28
2023-01-21T22:48:42.900Z,19.23
2023-01-21T22:54:05.031Z,19.16
2023-01-21T22:59:26.820Z,19.09
2023-01-21T23:04:48.570Z,19.03
2023-01-21T23:10:10.611Z,18.98
2023-01-21T23:15:32.378Z,18.90
2023-01-21T23:20:54.592Z,18.84
2023-01-21T23:26:19.419Z,18.78
2023-01-21T23:31:41.222Z,18.74
2023-01-21T23:37:03.027Z,18.70
2023-01-21T23:42:24.759Z,18.64
2023-01-21T23:47:47.758Z,18.59
2023-01-21T23:53:09.553Z,18.54
2023-01-21T23:58:31.378Z,18.49
